sensor_id;sensor_type;location;lat;lon;timestamp;temperature;humidity
2220;DHT22;1116;51.502;7.414;2023-08-21T00:01:53;20.90;59.70
2220;DHT22;1116;51.502;7.414;2023-08-21T00:04:27;20.90;59.60
2220;DHT22;1116;51.502;7.414;2023-08-21T00:06:58;20.90;59.30
2220;DHT22;1116;51.502;7.414;2023-08-21T00:09:28;20.80;59.60
2220;DHT22;1116;51.502;7.414;2023-08-21T00:11:59;20.90;59.00
2220;DHT22;1116;51.502;7.414;2023-08-21T00:14:30;20.90;59.70
2220;DHT22;1116;51.502;7.414;2023-08-21T00:17:01;20.80;58.20
2220;DHT22;1116;51.502;7.414;2023-08-21T00:19:35;20.70;58.10
2220;DHT22;1116;51.502;7.414;2023-08-21T00:22:05;20.80;57.10
2220;DHT22;1116;51.502;7.414;2023-08-21T00:24:36;20.80;57.20
2220;DHT22;1116;51.502;7.414;2023-08-21T00:27:07;20.90;55.20
2220;DHT22;1116;51.502;7.414;2023-08-21T00:29:38;20.90;56.40
2220;DHT22;1116;51.502;7.414;2023-08-21T00:32:09;20.90;56.90
2220;DHT22;1116;51.502;7.414;2023-08-21T00:34:44;20.90;57.80
2220;DHT22;1116;51.502;7.414;2023-08-21T00:37:14;20.80;57.90
2220;DHT22;1116;51.502;7.414;2023-08-21T00:39:44;20.70;58.00
2220;DHT22;1116;51.502;7.414;2023-08-21T00:42:14;20.70;58.20
2220;DHT22;1116;51.502;7.414;2023-08-21T00:44:46;20.70;58.00
2220;DHT22;1116;51.502;7.414;2023-08-21T00:47:17;20.70;58.30
2220;DHT22;1116;51.502;7.414;2023-08-21T00:49:52;20.60;55.70
2220;DHT22;1116;51.502;7.414;2023-08-21T00:52:23;20.70;56.10
2220;DHT22;1116;51.502;7.414;2023-08-21T00:54:55;20.70;56.10
2220;DHT22;1116;51.502;7.414;2023-08-21T00:57:27;20.70;56.60
2220;DHT22;1116;51.502;7.414;2023-08-21T00:59:59;20.60;57.30
2220;DHT22;1116;51.502;7.414;2023-08-21T01:02:32;20.70;57.40
2220;DHT22;1116;51.502;7.414;2023-08-21T01:05:08;20.60;57.90
2220;DHT22;1116;51.502;7.414;2023-08-21T01:07:47;20.50;57.90
2220;DHT22;1116;51.502;7.414;2023-08-21T01:10:28;20.50;59.50
2220;DHT22;1116;51.502;7.414;2023-08-21T01:13:14;20.50;59.20
2220;DHT22;1116;51.502;7.414;2023-08-21T01:15:56;20.50;59.20
2220;DHT22;1116;51.502;7.414;2023-08-21T01:18:28;20.40;59.90
2220;DHT22;1116;51.502;7.414;2023-08-21T01:21:05;20.30;59.10
2220;DHT22;1116;51.502;7.414;2023-08-21T01:23:38;20.40;60.00
2220;DHT22;1116;51.502;7.414;2023-08-21T01:26:11;20.40;59.20
2220;DHT22;1116;51.502;7.414;2023-08-21T01:28:42;20.40;59.20
2220;DHT22;1116;51.502;7.414;2023-08-21T01:31:17;20.50;59.20
2220;DHT22;1116;51.502;7.414;2023-08-21T01:33:56;20.30;58.70
2220;DHT22;1116;51.502;7.414;2023-08-21T01:36:31;20.30;58.90
2220;DHT22;1116;51.502;7.414;2023-08-21T01:39:04;20.20;59.60
2220;DHT22;1116;51.502;7.414;2023-08-21T01:41:34;20.40;60.50
2220;DHT22;1116;51.502;7.414;2023-08-21T01:44:05;20.40;59.10
2220;DHT22;1116;51.502;7.414;2023-08-21T01:46:37;20.50;59.20
2220;DHT22;1116;51.502;7.414;2023-08-21T01:49:09;20.40;58.80
2220;DHT22;1116;51.502;7.414;2023-08-21T01:51:40;20.30;59.10
2220;DHT22;1116;51.502;7.414;2023-08-21T01:54:14;20.40;59.20
2220;DHT22;1116;51.502;7.414;2023-08-21T01:56:45;20.40;58.40
2220;DHT22;1116;51.502;7.414;2023-08-21T01:59:16;20.40;59.40
2220;DHT22;1116;51.502;7.414;2023-08-21T02:01:48;20.50;58.20
2220;DHT22;1116;51.502;7.414;2023-08-21T02:04:19;20.50;58.60
2220;DHT22;1116;51.502;7.414;2023-08-21T02:06:50;20.50;57.90
2220;DHT22;1116;51.502;7.414;2023-08-21T02:09:24;20.40;59.00
2220;DHT22;1116;51.502;7.414;2023-08-21T02:11:55;20.40;58.50
2220;DHT22;1116;51.502;7.414;2023-08-21T02:14:25;20.30;58.10
2220;DHT22;1116;51.502;7.414;2023-08-21T02:16:56;20.30;59.10
2220;DHT22;1116;51.502;7.414;2023-08-21T02:19:27;20.20;59.30
2220;DHT22;1116;51.502;7.414;2023-08-21T02:21:58;20.20;60.10
2220;DHT22;1116;51.502;7.414;2023-08-21T02:24:32;20.20;60.50
2220;DHT22;1116;51.502;7.414;2023-08-21T02:27:03;20.10;59.80
2220;DHT22;1116;51.502;7.414;2023-08-21T02:29:35;20.00;60.70
2220;DHT22;1116;51.502;7.414;2023-08-21T02:32:06;20.10;61.70
2220;DHT22;1116;51.502;7.414;2023-08-21T02:34:37;20.10;59.70
2220;DHT22;1116;51.502;7.414;2023-08-21T02:37:09;20.00;60.40
2220;DHT22;1116;51.502;7.414;2023-08-21T02:39:42;20.00;60.90
2220;DHT22;1116;51.502;7.414;2023-08-21T02:42:13;20.00;60.10
2220;DHT22;1116;51.502;7.414;2023-08-21T02:44:44;19.90;61.40
2220;DHT22;1116;51.502;7.414;2023-08-21T02:47:15;19.80;61.40
2220;DHT22;1116;51.502;7.414;2023-08-21T02:49:46;19.70;61.30
2220;DHT22;1116;51.502;7.414;2023-08-21T02:52:17;19.70;63.20
2220;DHT22;1116;51.502;7.414;2023-08-21T02:54:51;19.70;63.40
2220;DHT22;1116;51.502;7.414;2023-08-21T02:57:23;19.80;63.10
2220;DHT22;1116;51.502;7.414;2023-08-21T02:59:54;19.90;63.40
2220;DHT22;1116;51.502;7.414;2023-08-21T03:02:25;20.00;62.30
2220;DHT22;1116;51.502;7.414;2023-08-21T03:04:56;19.90;62.10
2220;DHT22;1116;51.502;7.414;2023-08-21T03:07:27;19.80;62.70
2220;DHT22;1116;51.502;7.414;2023-08-21T03:10:01;19.80;62.80
2220;DHT22;1116;51.502;7.414;2023-08-21T03:12:31;19.80;61.90
2220;DHT22;1116;51.502;7.414;2023-08-21T03:15:03;19.70;62.70
2220;DHT22;1116;51.502;7.414;2023-08-21T03:17:35;19.80;62.80
2220;DHT22;1116;51.502;7.414;2023-08-21T03:20:07;19.80;62.60
2220;DHT22;1116;51.502;7.414;2023-08-21T03:22:39;19.80;63.00
2220;DHT22;1116;51.502;7.414;2023-08-21T03:25:12;19.90;63.20
2220;DHT22;1116;51.502;7.414;2023-08-21T03:27:43;20.00;61.80
2220;DHT22;1116;51.502;7.414;2023-08-21T03:30:17;19.90;62.10
2220;DHT22;1116;51.502;7.414;2023-08-21T03:32:48;19.70;63.30
2220;DHT22;1116;51.502;7.414;2023-08-21T03:35:19;19.80;62.50
2220;DHT22;1116;51.502;7.414;2023-08-21T03:37:50;19.80;64.00
2220;DHT22;1116;51.502;7.414;2023-08-21T03:40:24;19.90;62.90
2220;DHT22;1116;51.502;7.414;2023-08-21T03:42:54;20.00;60.90
2220;DHT22;1116;51.502;7.414;2023-08-21T03:45:25;19.90;62.00
2220;DHT22;1116;51.502;7.414;2023-08-21T03:47:56;19.80;61.40
2220;DHT22;1116;51.502;7.414;2023-08-21T03:50:28;19.70;62.30
2220;DHT22;1116;51.502;7.414;2023-08-21T03:52:59;19.70;63.80
2220;DHT22;1116;51.502;7.414;2023-08-21T03:55:31;19.80;63.30
2220;DHT22;1116;51.502;7.414;2023-08-21T03:58:05;19.80;62.00
2220;DHT22;1116;51.502;7.414;2023-08-21T04:00:36;19.80;63.90
2220;DHT22;1116;51.502;7.414;2023-08-21T04:03:06;19.80;61.30
2220;DHT22;1116;51.502;7.414;2023-08-21T04:05:37;19.80;62.80
2220;DHT22;1116;51.502;7.414;2023-08-21T04:08:08;19.80;62.50
2220;DHT22;1116;51.502;7.414;2023-08-21T04:10:42;19.80;63.10
2220;DHT22;1116;51.502;7.414;2023-08-21T04:13:13;19.70;61.90
2220;DHT22;1116;51.502;7.414;2023-08-21T04:15:45;19.50;62.60
2220;DHT22;1116;51.502;7.414;2023-08-21T04:18:16;19.40;64.30
2220;DHT22;1116;51.502;7.414;2023-08-21T04:21:06;19.40;63.60
2220;DHT22;1116;51.502;7.414;2023-08-21T04:23:37;19.40;64.70
2220;DHT22;1116;51.502;7.414;2023-08-21T04:26:11;19.40;64.80
2220;DHT22;1116;51.502;7.414;2023-08-21T04:28:42;19.40;64.50
2220;DHT22;1116;51.502;7.414;2023-08-21T04:31:13;19.60;63.80
2220;DHT22;1116;51.502;7.414;2023-08-21T04:33:44;19.70;63.90
2220;DHT22;1116;51.502;7.414;2023-08-21T04:36:15;19.70;62.50
2220;DHT22;1116;51.502;7.414;2023-08-21T04:38:47;19.50;63.70
2220;DHT22;1116;51.502;7.414;2023-08-21T04:41:20;19.50;63.70
2220;DHT22;1116;51.502;7.414;2023-08-21T04:43:51;19.60;62.90
2220;DHT22;1116;51.502;7.414;2023-08-21T04:46:22;19.60;63.70
2220;DHT22;1116;51.502;7.414;2023-08-21T04:48:53;19.60;63.70
2220;DHT22;1116;51.502;7.414;2023-08-21T04:51:24;19.70;65.20
2220;DHT22;1116;51.502;7.414;2023-08-21T04:53:55;20.00;63.00
2220;DHT22;1116;51.502;7.414;2023-08-21T04:56:30;20.10;61.40
2220;DHT22;1116;51.502;7.414;2023-08-21T04:59:01;20.20;59.70
2220;DHT22;1116;51.502;7.414;2023-08-21T05:01:32;20.20;60.50
2220;DHT22;1116;51.502;7.414;2023-08-21T05:04:04;20.20;59.60
2220;DHT22;1116;51.502;7.414;2023-08-21T05:06:35;20.00;61.30
2220;DHT22;1116;51.502;7.414;2023-08-21T05:09:06;20.10;61.60
2220;DHT22;1116;51.502;7.414;2023-08-21T05:11:39;20.10;61.50
2220;DHT22;1116;51.502;7.414;2023-08-21T05:14:10;20.10;61.60
2220;DHT22;1116;51.502;7.414;2023-08-21T05:16:40;20.20;61.10
2220;DHT22;1116;51.502;7.414;2023-08-21T05:19:12;20.20;61.90
2220;DHT22;1116;51.502;7.414;2023-08-21T05:21:43;20.30;62.20
2220;DHT22;1116;51.502;7.414;2023-08-21T05:24:14;20.40;60.20
2220;DHT22;1116;51.502;7.414;2023-08-21T05:26:48;20.40;60.40
2220;DHT22;1116;51.502;7.414;2023-08-21T05:29:18;20.40;60.30
2220;DHT22;1116;51.502;7.414;2023-08-21T05:31:49;20.50;60.80
2220;DHT22;1116;51.502;7.414;2023-08-21T05:34:21;20.50;59.70
2220;DHT22;1116;51.502;7.414;2023-08-21T05:36:53;20.50;59.20
2220;DHT22;1116;51.502;7.414;2023-08-21T05:39:25;20.50;60.50
2220;DHT22;1116;51.502;7.414;2023-08-21T05:41:59;20.60;57.10
2220;DHT22;1116;51.502;7.414;2023-08-21T05:44:30;20.60;58.60
2220;DHT22;1116;51.502;7.414;2023-08-21T05:47:00;20.70;54.60
2220;DHT22;1116;51.502;7.414;2023-08-21T05:49:31;20.80;56.40
2220;DHT22;1116;51.502;7.414;2023-08-21T05:52:03;21.00;56.90
2220;DHT22;1116;51.502;7.414;2023-08-21T05:54:35;21.10;55.60
2220;DHT22;1116;51.502;7.414;2023-08-21T05:57:08;21.20;53.90
2220;DHT22;1116;51.502;7.414;2023-08-21T05:59:43;21.10;51.70
2220;DHT22;1116;51.502;7.414;2023-08-21T06:02:15;21.20;53.90
2220;DHT22;1116;51.502;7.414;2023-08-21T06:04:46;21.30;52.00
2220;DHT22;1116;51.502;7.414;2023-08-21T06:07:17;21.40;52.40
2220;DHT22;1116;51.502;7.414;2023-08-21T06:09:47;21.40;50.80
2220;DHT22;1116;51.502;7.414;2023-08-21T06:12:22;21.70;50.10
2220;DHT22;1116;51.502;7.414;2023-08-21T06:14:52;22.00;48.50
2220;DHT22;1116;51.502;7.414;2023-08-21T06:17:23;22.60;45.10
2220;DHT22;1116;51.502;7.414;2023-08-21T06:19:55;23.10;43.80
2220;DHT22;1116;51.502;7.414;2023-08-21T06:22:26;23.60;42.50
2220;DHT22;1116;51.502;7.414;2023-08-21T06:24:56;24.40;38.20
2220;DHT22;1116;51.502;7.414;2023-08-21T06:27:30;24.70;35.60
2220;DHT22;1116;51.502;7.414;2023-08-21T06:30:14;25.10;35.40
2220;DHT22;1116;51.502;7.414;2023-08-21T06:32:45;24.60;38.00
2220;DHT22;1116;51.502;7.414;2023-08-21T06:35:16;24.40;36.10
2220;DHT22;1116;51.502;7.414;2023-08-21T06:37:47;24.30;35.10
2220;DHT22;1116;51.502;7.414;2023-08-21T06:40:18;24.80;35.40
2220;DHT22;1116;51.502;7.414;2023-08-21T06:42:54;26.00;30.90
2220;DHT22;1116;51.502;7.414;2023-08-21T06:45:27;26.60;29.20
2220;DHT22;1116;51.502;7.414;2023-08-21T06:48:00;26.10;29.60
2220;DHT22;1116;51.502;7.414;2023-08-21T06:50:31;25.60;29.50
2220;DHT22;1116;51.502;7.414;2023-08-21T06:53:03;25.00;28.90
2220;DHT22;1116;51.502;7.414;2023-08-21T06:55:34;24.40;30.00
2220;DHT22;1116;51.502;7.414;2023-08-21T06:58:08;24.00;31.30
2220;DHT22;1116;51.502;7.414;2023-08-21T07:00:39;23.90;34.90
2220;DHT22;1116;51.502;7.414;2023-08-21T07:03:11;23.90;35.10
2220;DHT22;1116;51.502;7.414;2023-08-21T07:05:46;23.90;34.40
2220;DHT22;1116;51.502;7.414;2023-08-21T07:08:18;23.90;37.60
2220;DHT22;1116;51.502;7.414;2023-08-21T07:10:50;23.80;34.80
2220;DHT22;1116;51.502;7.414;2023-08-21T07:13:24;23.60;35.90
2220;DHT22;1116;51.502;7.414;2023-08-21T07:15:55;23.50;39.20
2220;DHT22;1116;51.502;7.414;2023-08-21T07:18:27;23.50;37.40
2220;DHT22;1116;51.502;7.414;2023-08-21T07:20:58;23.50;38.90
2220;DHT22;1116;51.502;7.414;2023-08-21T07:23:29;23.50;37.90
2220;DHT22;1116;51.502;7.414;2023-08-21T07:26:01;23.50;37.00
2220;DHT22;1116;51.502;7.414;2023-08-21T07:28:37;23.60;38.70
2220;DHT22;1116;51.502;7.414;2023-08-21T07:31:08;23.80;39.00
2220;DHT22;1116;51.502;7.414;2023-08-21T07:33:40;23.90;37.70
2220;DHT22;1116;51.502;7.414;2023-08-21T07:36:11;23.90;38.40
2220;DHT22;1116;51.502;7.414;2023-08-21T07:38:45;23.90;38.80
2220;DHT22;1116;51.502;7.414;2023-08-21T07:41:17;24.00;38.80
2220;DHT22;1116;51.502;7.414;2023-08-21T07:43:50;23.90;37.70
2220;DHT22;1116;51.502;7.414;2023-08-21T07:46:22;24.10;37.90
2220;DHT22;1116;51.502;7.414;2023-08-21T07:48:53;24.10;35.80
2220;DHT22;1116;51.502;7.414;2023-08-21T07:51:24;24.10;36.80
2220;DHT22;1116;51.502;7.414;2023-08-21T07:53:55;24.00;36.30
2220;DHT22;1116;51.502;7.414;2023-08-21T07:56:28;24.10;36.80
2220;DHT22;1116;51.502;7.414;2023-08-21T07:59:02;24.30;39.20
2220;DHT22;1116;51.502;7.414;2023-08-21T08:01:33;24.10;37.30
2220;DHT22;1116;51.502;7.414;2023-08-21T08:04:04;24.00;35.50
2220;DHT22;1116;51.502;7.414;2023-08-21T08:06:35;23.90;37.70
2220;DHT22;1116;51.502;7.414;2023-08-21T08:09:06;23.80;35.70
2220;DHT22;1116;51.502;7.414;2023-08-21T08:11:38;23.80;38.40
2220;DHT22;1116;51.502;7.414;2023-08-21T08:14:12;23.90;38.40
2220;DHT22;1116;51.502;7.414;2023-08-21T08:16:44;24.10;37.50
2220;DHT22;1116;51.502;7.414;2023-08-21T08:19:15;24.20;35.50
2220;DHT22;1116;51.502;7.414;2023-08-21T08:21:48;24.40;36.00
2220;DHT22;1116;51.502;7.414;2023-08-21T08:24:21;24.50;36.30
2220;DHT22;1116;51.502;7.414;2023-08-21T08:26:53;24.70;35.00
2220;DHT22;1116;51.502;7.414;2023-08-21T08:29:27;24.70;33.30
2220;DHT22;1116;51.502;7.414;2023-08-21T08:31:58;24.80;32.80
2220;DHT22;1116;51.502;7.414;2023-08-21T08:34:29;25.10;32.60
2220;DHT22;1116;51.502;7.414;2023-08-21T08:37:00;25.20;32.40
2220;DHT22;1116;51.502;7.414;2023-08-21T08:39:31;25.50;32.60
2220;DHT22;1116;51.502;7.414;2023-08-21T08:42:06;25.60;30.50
2220;DHT22;1116;51.502;7.414;2023-08-21T08:44:43;25.70;32.70
2220;DHT22;1116;51.502;7.414;2023-08-21T08:47:14;25.70;32.80
2220;DHT22;1116;51.502;7.414;2023-08-21T08:49:47;25.50;29.60
2220;DHT22;1116;51.502;7.414;2023-08-21T08:52:19;25.50;31.20
2220;DHT22;1116;51.502;7.414;2023-08-21T08:54:51;25.50;30.50
2220;DHT22;1116;51.502;7.414;2023-08-21T08:57:23;25.80;31.10
2220;DHT22;1116;51.502;7.414;2023-08-21T08:59:56;25.80;29.60
2220;DHT22;1116;51.502;7.414;2023-08-21T09:02:28;25.90;31.60
2220;DHT22;1116;51.502;7.414;2023-08-21T09:04:59;25.70;30.90
2220;DHT22;1116;51.502;7.414;2023-08-21T09:07:32;25.70;31.90
2220;DHT22;1116;51.502;7.414;2023-08-21T09:10:04;25.50;31.00
2220;DHT22;1116;51.502;7.414;2023-08-21T09:12:37;25.30;30.80
2220;DHT22;1116;51.502;7.414;2023-08-21T09:15:14;25.30;32.50
2220;DHT22;1116;51.502;7.414;2023-08-21T09:17:53;25.30;30.50
2220;DHT22;1116;51.502;7.414;2023-08-21T09:20:24;25.10;30.60
2220;DHT22;1116;51.502;7.414;2023-08-21T09:22:55;25.20;32.10
2220;DHT22;1116;51.502;7.414;2023-08-21T09:25:26;25.30;31.30
2220;DHT22;1116;51.502;7.414;2023-08-21T09:27:57;25.30;30.10
2220;DHT22;1116;51.502;7.414;2023-08-21T09:30:43;25.40;31.30
2220;DHT22;1116;51.502;7.414;2023-08-21T09:33:19;25.30;31.50
2220;DHT22;1116;51.502;7.414;2023-08-21T09:35:52;25.30;32.50
2220;DHT22;1116;51.502;7.414;2023-08-21T09:38:26;25.30;32.50
2220;DHT22;1116;51.502;7.414;2023-08-21T09:40:57;25.20;32.40
2220;DHT22;1116;51.502;7.414;2023-08-21T09:43:30;25.50;32.50
2220;DHT22;1116;51.502;7.414;2023-08-21T09:46:04;25.70;30.60
2220;DHT22;1116;51.502;7.414;2023-08-21T09:48:35;26.80;27.80
2220;DHT22;1116;51.502;7.414;2023-08-21T09:51:07;28.50;24.80
2220;DHT22;1116;51.502;7.414;2023-08-21T09:53:40;29.80;20.50
2220;DHT22;1116;51.502;7.414;2023-08-21T09:56:12;30.60;19.50
2220;DHT22;1116;51.502;7.414;2023-08-21T09:58:43;31.20;17.40
2220;DHT22;1116;51.502;7.414;2023-08-21T10:01:21;31.80;15.40
2220;DHT22;1116;51.502;7.414;2023-08-21T10:03:54;32.80;13.90
2220;DHT22;1116;51.502;7.414;2023-08-21T10:06:27;32.70;13.00
2220;DHT22;1116;51.502;7.414;2023-08-21T10:08:58;33.10;12.10
2220;DHT22;1116;51.502;7.414;2023-08-21T10:11:30;33.40;10.20
2220;DHT22;1116;51.502;7.414;2023-08-21T10:14:02;33.60;10.40
2220;DHT22;1116;51.502;7.414;2023-08-21T10:16:36;34.20;10.60
2220;DHT22;1116;51.502;7.414;2023-08-21T10:19:07;34.40;10.30
2220;DHT22;1116;51.502;7.414;2023-08-21T10:21:39;32.80;11.50
2220;DHT22;1116;51.502;7.414;2023-08-21T10:24:10;32.50;11.90
2220;DHT22;1116;51.502;7.414;2023-08-21T10:26:41;32.70;11.80
2220;DHT22;1116;51.502;7.414;2023-08-21T10:29:14;32.70;12.70
2220;DHT22;1116;51.502;7.414;2023-08-21T10:31:58;32.50;12.00
2220;DHT22;1116;51.502;7.414;2023-08-21T10:34:35;31.70;14.10
2220;DHT22;1116;51.502;7.414;2023-08-21T10:37:08;31.40;15.30
2220;DHT22;1116;51.502;7.414;2023-08-21T10:39:55;31.40;14.60
2220;DHT22;1116;51.502;7.414;2023-08-21T10:42:39;31.30;14.90
2220;DHT22;1116;51.502;7.414;2023-08-21T10:45:12;30.90;15.60
2220;DHT22;1116;51.502;7.414;2023-08-21T10:47:46;30.60;17.80
2220;DHT22;1116;51.502;7.414;2023-08-21T10:50:18;30.80;16.50
2220;DHT22;1116;51.502;7.414;2023-08-21T10:52:52;30.70;16.20
2220;DHT22;1116;51.502;7.414;2023-08-21T10:55:24;30.80;16.00
2220;DHT22;1116;51.502;7.414;2023-08-21T10:57:52;30.60;16.60
2220;DHT22;1116;51.502;7.414;2023-08-21T11:00:23;30.00;18.30
2220;DHT22;1116;51.502;7.414;2023-08-21T11:02:58;29.70;19.00
2220;DHT22;1116;51.502;7.414;2023-08-21T11:05:31;29.50;19.40
2220;DHT22;1116;51.502;7.414;2023-08-21T11:08:03;29.40;19.60
2220;DHT22;1116;51.502;7.414;2023-08-21T11:10:35;30.00;19.20
2220;DHT22;1116;51.502;7.414;2023-08-21T11:13:07;30.10;18.00
2220;DHT22;1116;51.502;7.414;2023-08-21T11:15:39;30.30;19.30
2220;DHT22;1116;51.502;7.414;2023-08-21T11:18:13;31.10;15.90
2220;DHT22;1116;51.502;7.414;2023-08-21T11:20:45;32.40;14.60
2220;DHT22;1116;51.502;7.414;2023-08-21T11:23:16;33.80;12.90
2220;DHT22;1116;51.502;7.414;2023-08-21T11:25:47;34.60;10.90
2220;DHT22;1116;51.502;7.414;2023-08-21T11:28:19;34.80;11.10
2220;DHT22;1116;51.502;7.414;2023-08-21T11:30:51;34.60;9.60
2220;DHT22;1116;51.502;7.414;2023-08-21T11:33:25;34.70;9.50
2220;DHT22;1116;51.502;7.414;2023-08-21T11:35:57;33.40;10.20
2220;DHT22;1116;51.502;7.414;2023-08-21T11:38:30;33.80;10.50
2220;DHT22;1116;51.502;7.414;2023-08-21T11:41:05;34.30;10.80
2220;DHT22;1116;51.502;7.414;2023-08-21T11:43:37;33.70;12.20
2220;DHT22;1116;51.502;7.414;2023-08-21T11:46:10;33.30;10.60
2220;DHT22;1116;51.502;7.414;2023-08-21T11:48:44;32.70;11.10
2220;DHT22;1116;51.502;7.414;2023-08-21T11:51:16;32.10;14.50
2220;DHT22;1116;51.502;7.414;2023-08-21T11:53:47;32.10;13.70
2220;DHT22;1116;51.502;7.414;2023-08-21T11:56:19;31.60;13.80
2220;DHT22;1116;51.502;7.414;2023-08-21T11:58:51;31.50;13.20
2220;DHT22;1116;51.502;7.414;2023-08-21T12:01:22;31.50;16.00
2220;DHT22;1116;51.502;7.414;2023-08-21T12:03:59;32.00;14.90
2220;DHT22;1116;51.502;7.414;2023-08-21T12:06:30;32.50;13.00
2220;DHT22;1116;51.502;7.414;2023-08-21T12:09:01;32.50;11.90
2220;DHT22;1116;51.502;7.414;2023-08-21T12:11:32;32.70;14.60
2220;DHT22;1116;51.502;7.414;2023-08-21T12:14:06;32.00;14.00
2220;DHT22;1116;51.502;7.414;2023-08-21T12:16:38;31.60;14.00
2220;DHT22;1116;51.502;7.414;2023-08-21T12:19:11;32.20;15.80
2220;DHT22;1116;51.502;7.414;2023-08-21T12:21:43;32.90;14.80
2220;DHT22;1116;51.502;7.414;2023-08-21T12:24:15;32.90;12.30
2220;DHT22;1116;51.502;7.414;2023-08-21T12:26:47;32.70;12.70
2220;DHT22;1116;51.502;7.414;2023-08-21T12:29:20;32.30;13.30
2220;DHT22;1116;51.502;7.414;2023-08-21T12:31:51;32.30;15.60
2220;DHT22;1116;51.502;7.414;2023-08-21T12:34:25;32.40;14.60
2220;DHT22;1116;51.502;7.414;2023-08-21T12:36:56;32.40;14.60
2220;DHT22;1116;51.502;7.414;2023-08-21T12:39:27;32.10;14.40
2220;DHT22;1116;51.502;7.414;2023-08-21T12:41:58;32.10;14.00
2220;DHT22;1116;51.502;7.414;2023-08-21T12:44:30;31.50;14.60
2220;DHT22;1116;51.502;7.414;2023-08-21T12:47:03;31.30;14.50
2220;DHT22;1116;51.502;7.414;2023-08-21T12:49:38;31.70;16.00
2220;DHT22;1116;51.502;7.414;2023-08-21T12:52:12;32.20;13.90
2220;DHT22;1116;51.502;7.414;2023-08-21T12:54:45;32.40;16.20
2220;DHT22;1116;51.502;7.414;2023-08-21T12:57:16;32.20;14.10
2220;DHT22;1116;51.502;7.414;2023-08-21T12:59:47;32.10;14.20
2220;DHT22;1116;51.502;7.414;2023-08-21T13:02:19;31.80;16.10
2220;DHT22;1116;51.502;7.414;2023-08-21T13:04:54;31.60;15.50
2220;DHT22;1116;51.502;7.414;2023-08-21T13:07:25;31.60;14.20
2220;DHT22;1116;51.502;7.414;2023-08-21T13:09:56;31.50;14.60
2220;DHT22;1116;51.502;7.414;2023-08-21T13:12:27;31.30;15.10
2220;DHT22;1116;51.502;7.414;2023-08-21T13:14:58;31.50;14.60
2220;DHT22;1116;51.502;7.414;2023-08-21T13:17:29;31.50;16.10
2220;DHT22;1116;51.502;7.414;2023-08-21T13:20:04;31.40;15.30
2220;DHT22;1116;51.502;7.414;2023-08-21T13:22:45;31.20;17.10
2220;DHT22;1116;51.502;7.414;2023-08-21T13:25:18;31.10;17.00
2220;DHT22;1116;51.502;7.414;2023-08-21T13:27:50;31.50;19.50
2220;DHT22;1116;51.502;7.414;2023-08-21T13:30:21;31.70;15.40
2220;DHT22;1116;51.502;7.414;2023-08-21T13:32:53;32.00;14.90
2220;DHT22;1116;51.502;7.414;2023-08-21T13:35:25;31.90;14.90
2220;DHT22;1116;51.502;7.414;2023-08-21T13:37:57;31.80;14.70
2220;DHT22;1116;51.502;7.414;2023-08-21T13:40:28;31.90;15.40
2220;DHT22;1116;51.502;7.414;2023-08-21T13:42:59;32.10;14.60
2220;DHT22;1116;51.502;7.414;2023-08-21T13:45:31;32.20;15.00
2220;DHT22;1116;51.502;7.414;2023-08-21T13:48:03;31.90;13.70
2220;DHT22;1116;51.502;7.414;2023-08-21T13:50:36;31.80;14.30
2220;DHT22;1116;51.502;7.414;2023-08-21T13:53:07;31.60;13.90
2220;DHT22;1116;51.502;7.414;2023-08-21T13:55:39;31.40;13.10
2220;DHT22;1116;51.502;7.414;2023-08-21T13:58:10;31.30;14.50
2220;DHT22;1116;51.502;7.414;2023-08-21T14:00:41;31.20;15.90
2220;DHT22;1116;51.502;7.414;2023-08-21T14:03:12;31.40;17.50
2220;DHT22;1116;51.502;7.414;2023-08-21T14:05:46;31.20;15.60
2220;DHT22;1116;51.502;7.414;2023-08-21T14:08:17;30.90;16.40
2220;DHT22;1116;51.502;7.414;2023-08-21T14:10:48;30.90;16.10
2220;DHT22;1116;51.502;7.414;2023-08-21T14:13:18;30.80;16.30
2220;DHT22;1116;51.502;7.414;2023-08-21T14:15:50;30.50;17.00
2220;DHT22;1116;51.502;7.414;2023-08-21T14:18:21;30.40;17.30
2220;DHT22;1116;51.502;7.414;2023-08-21T14:20:55;30.70;17.70
2220;DHT22;1116;51.502;7.414;2023-08-21T14:23:26;30.80;15.20
2220;DHT22;1116;51.502;7.414;2023-08-21T14:26:01;30.70;16.80
2220;DHT22;1116;51.502;7.414;2023-08-21T14:28:32;30.80;15.90
2220;DHT22;1116;51.502;7.414;2023-08-21T14:31:03;30.90;17.40
2220;DHT22;1116;51.502;7.414;2023-08-21T14:33:34;30.90;17.70
2220;DHT22;1116;51.502;7.414;2023-08-21T14:36:08;31.00;19.00
2220;DHT22;1116;51.502;7.414;2023-08-21T14:38:39;30.90;17.30
2220;DHT22;1116;51.502;7.414;2023-08-21T14:41:10;30.50;16.10
2220;DHT22;1116;51.502;7.414;2023-08-21T14:43:41;30.10;16.90
2220;DHT22;1116;51.502;7.414;2023-08-21T14:46:12;29.70;18.50
2220;DHT22;1116;51.502;7.414;2023-08-21T14:49:01;29.80;19.00
2220;DHT22;1116;51.502;7.414;2023-08-21T14:51:35;29.70;19.00
2220;DHT22;1116;51.502;7.414;2023-08-21T14:54:07;29.50;19.90
2220;DHT22;1116;51.502;7.414;2023-08-21T14:56:38;29.30;20.10
2220;DHT22;1116;51.502;7.414;2023-08-21T14:59:09;29.10;20.80
2220;DHT22;1116;51.502;7.414;2023-08-21T15:01:41;29.00;20.80
2220;DHT22;1116;51.502;7.414;2023-08-21T15:04:12;28.90;21.60
2220;DHT22;1116;51.502;7.414;2023-08-21T15:06:46;28.70;20.80
2220;DHT22;1116;51.502;7.414;2023-08-21T15:09:17;28.60;21.30
2220;DHT22;1116;51.502;7.414;2023-08-21T15:11:48;28.50;22.10
2220;DHT22;1116;51.502;7.414;2023-08-21T15:14:19;28.40;22.00
2220;DHT22;1116;51.502;7.414;2023-08-21T15:16:51;28.20;22.00
2220;DHT22;1116;51.502;7.414;2023-08-21T15:19:41;28.30;23.40
2220;DHT22;1116;51.502;7.414;2023-08-21T15:22:13;28.30;23.50
2220;DHT22;1116;51.502;7.414;2023-08-21T15:24:44;28.40;22.20
2220;DHT22;1116;51.502;7.414;2023-08-21T15:27:15;28.40;21.80
2220;DHT22;1116;51.502;7.414;2023-08-21T15:29:46;28.40;22.00
2220;DHT22;1116;51.502;7.414;2023-08-21T15:32:17;28.50;23.60
2220;DHT22;1116;51.502;7.414;2023-08-21T15:34:49;28.60;21.90
2220;DHT22;1116;51.502;7.414;2023-08-21T15:37:22;28.80;21.20
2220;DHT22;1116;51.502;7.414;2023-08-21T15:39:54;28.70;20.60
2220;DHT22;1116;51.502;7.414;2023-08-21T15:42:25;28.80;22.80
2220;DHT22;1116;51.502;7.414;2023-08-21T15:44:56;29.10;21.80
2220;DHT22;1116;51.502;7.414;2023-08-21T15:47:27;29.10;20.90
2220;DHT22;1116;51.502;7.414;2023-08-21T15:50:01;29.00;21.90
2220;DHT22;1116;51.502;7.414;2023-08-21T15:52:35;28.90;21.00
2220;DHT22;1116;51.502;7.414;2023-08-21T15:55:07;28.70;21.40
2220;DHT22;1116;51.502;7.414;2023-08-21T15:57:37;28.50;20.90
2220;DHT22;1116;51.502;7.414;2023-08-21T16:00:09;28.30;23.40
2220;DHT22;1116;51.502;7.414;2023-08-21T16:02:40;28.20;23.40
2220;DHT22;1116;51.502;7.414;2023-08-21T16:05:12;28.20;22.40
2220;DHT22;1116;51.502;7.414;2023-08-21T16:07:45;28.20;22.50
2220;DHT22;1116;51.502;7.414;2023-08-21T16:10:17;28.20;23.20
2220;DHT22;1116;51.502;7.414;2023-08-21T16:12:48;28.20;23.40
2220;DHT22;1116;51.502;7.414;2023-08-21T16:15:18;28.20;23.40
2220;DHT22;1116;51.502;7.414;2023-08-21T16:17:49;28.00;24.40
2220;DHT22;1116;51.502;7.414;2023-08-21T16:20:20;28.00;23.30
2220;DHT22;1116;51.502;7.414;2023-08-21T16:22:55;27.90;25.20
2220;DHT22;1116;51.502;7.414;2023-08-21T16:25:26;27.90;23.20
2220;DHT22;1116;51.502;7.414;2023-08-21T16:27:57;28.00;23.30
2220;DHT22;1116;51.502;7.414;2023-08-21T16:30:28;27.90;23.20
2220;DHT22;1116;51.502;7.414;2023-08-21T16:33:01;27.90;24.40
2220;DHT22;1116;51.502;7.414;2023-08-21T16:35:33;27.90;22.80